Terminal Aerodrome Forecast
Issued by NWS Twin Cities, MN

Home | Current Version | Previous Version | Text Only | Print | Product List | Glossary On
Versions: 1 2 3 4 5 6 7 8 9 10 11 12 13 14 15 16 17 18 19 20 21 22
735
FTUS43 KMPX 220709 AAA
TAFSTC
TAF AMD
KSTC 220709Z 2207/2306 VRB03KT 1/2SM FG VV002
     FM221500 33004KT 2SM BR OVC003
     FM221800 30005KT 5SM BR OVC008
     FM230100 29006KT 2SM BR OVC005=

USA.gov is the U.S. government's official web portal to all federal, state and local government web resources and services.